Time;durP1;ratioP1;P1;durP2;ratioP2;P2;SDS_P1;SDS_P2;PMS_P1;PMS_P2;Temp;Humidity;BMP_temperature;BMP_pressure;BME280_temperature;BME280_humidity;BME280_pressure;Samples;Min_cycle;Max_cycle;Signal;HPM_P1;HPM_P2
2023/10/14 00:01:06;;;;;;;;;;;;;;;14.01;100.00;100183.19;5020945;28;20397;-80
2023/10/14 00:03:35;;;;;;;;;;;;;;;13.90;100.00;100184.66;5040274;28;19917;-79
2023/10/14 00:06:02;;;;;;;;;;;;;;;13.80;100.00;100208.66;5027444;28;19940;-79
2023/10/14 00:08:31;;;;;;;;;;;;;;;13.80;100.00;100242.72;5038364;28;19921;-79
2023/10/14 00:10:59;;;;;;;;;;;;;;;13.76;100.00;100227.19;5005959;28;20279;-79
2023/10/14 00:13:30;;;;;;;;;;;;;;;13.76;100.00;100207.09;5019472;28;19917;-79
2023/10/14 00:15:55;;;;;;;;;;;;;;;13.76;100.00;100212.31;5021343;28;20444;-79
2023/10/14 00:18:20;;;;;;;;;;;;;;;13.76;100.00;100208.88;5069362;28;20004;-79
2023/10/14 00:20:46;;;;;;;;;;;;;;;13.76;100.00;100209.69;5021368;28;19918;-79
2023/10/14 00:23:11;;;;;;;;;;;;;;;13.69;100.00;100217.94;5045468;28;19915;-79
2023/10/14 00:25:36;;;;;;;;;;;;;;;13.63;100.00;100219.06;5026279;28;19956;-79
2023/10/14 00:28:11;;;;;;;;;;;;;;;13.59;100.00;100212.25;5029913;28;20283;-79
2023/10/14 00:30:38;;;;;;;;;;;;;;;13.50;100.00;100224.00;5026756;28;20430;-80
2023/10/14 00:33:03;;;;;;;;;;;;;;;13.50;100.00;100238.88;5017481;28;20365;-79
2023/10/14 00:35:29;;;;;;;;;;;;;;;13.53;100.00;100262.28;5019089;28;20015;-79
2023/10/14 00:37:55;;;;;;;;;;;;;;;13.53;100.00;100263.16;5016734;28;20024;-79
2023/10/14 00:40:23;;;;;;;;;;;;;;;13.51;100.00;100285.09;5056177;28;19962;-79
2023/10/14 00:42:55;;;;;;;;;;;;;;;13.52;100.00;100266.69;5031274;28;20402;-79
2023/10/14 00:45:20;;;;;;;;;;;;;;;13.48;100.00;100272.16;5018539;28;19933;-79
2023/10/14 00:47:48;;;;;;;;;;;;;;;13.48;100.00;100280.00;5027145;28;19921;-79
2023/10/14 00:50:33;;;;;;;;;;;;;;;13.53;100.00;100278.00;5008496;28;19928;-79
2023/10/14 00:53:00;;;;;;;;;;;;;;;13.54;100.00;100262.25;5008267;28;20418;-79
2023/10/14 00:55:41;;;;;;;;;;;;;;;13.53;100.00;100263.16;5032296;28;20012;-79
2023/10/14 00:58:06;;;;;;;;;;;;;;;13.52;100.00;100277.16;5015352;28;20372;-79
2023/10/14 01:00:37;;;;;;;;;;;;;;;13.51;100.00;100279.88;5017289;28;19917;-79
2023/10/14 01:03:07;;;;;;;;;;;;;;;13.49;100.00;100287.78;5014312;28;19925;-78
2023/10/14 01:05:35;;;;;;;;;;;;;;;13.51;100.00;100293.81;5007901;28;19913;-79
2023/10/14 01:08:02;;;;;;;;;;;;;;;13.52;100.00;100292.03;5030448;28;19917;-78
2023/10/14 01:10:28;;;;;;;;;;;;;;;13.52;100.00;100292.88;5023656;28;19917;-79
2023/10/14 01:12:56;;;;;;;;;;;;;;;13.48;100.00;100301.78;5068995;28;20000;-78
2023/10/14 01:15:22;;;;;;;;;;;;;;;13.45;100.00;100306.31;5026032;28;20276;-79
2023/10/14 01:17:48;;;;;;;;;;;;;;;13.40;100.00;100313.50;5033232;28;19917;-79
2023/10/14 01:22:43;;;;;;;;;;;;;;;13.34;100.00;100349.53;5022650;28;19971;-79
2023/10/14 01:25:12;;;;;;;;;;;;;;;13.32;100.00;100353.97;5006837;28;19951;-79
2023/10/14 01:27:38;;;;;;;;;;;;;;;13.16;100.00;100358.13;5021565;28;19921;-78
2023/10/14 01:30:10;;;;;;;;;;;;;;;13.06;100.00;100369.88;5014615;28;19918;-79
2023/10/14 01:35:13;;;;;;;;;;;;;;;12.84;100.00;100373.34;5010701;28;20012;-79
2023/10/14 01:37:44;;;;;;;;;;;;;;;12.74;100.00;100390.34;5022224;28;19921;-78
2023/10/14 01:40:24;;;;;;;;;;;;;;;12.69;100.00;100397.53;5048203;28;20412;-78
2023/10/14 01:42:56;;;;;;;;;;;;;;;12.68;100.00;100400.19;5022531;28;19917;-78
2023/10/14 01:45:22;;;;;;;;;;;;;;;12.65;100.00;100409.00;5010744;28;19917;-78
2023/10/14 01:47:57;;;;;;;;;;;;;;;12.61;100.00;100410.03;5036297;28;20004;-78
2023/10/14 01:50:22;;;;;;;;;;;;;;;12.56;100.00;100430.31;5022170;28;20426;-78
2023/10/14 01:52:52;;;;;;;;;;;;;;;12.53;100.00;100430.41;5033130;28;19921;-78
2023/10/14 01:55:20;;;;;;;;;;;;;;;12.51;100.00;100435.69;5007592;28;19921;-79
2023/10/14 01:57:46;;;;;;;;;;;;;;;12.50;100.00;100439.22;5016160;28;19957;-78
2023/10/14 02:00:24;;;;;;;;;;;;;;;12.45;100.00;100448.97;5014749;28;19917;-78
2023/10/14 02:02:58;;;;;;;;;;;;;;;12.54;100.00;100456.50;5032117;28;19915;-78
2023/10/14 02:05:25;;;;;;;;;;;;;;;12.34;100.00;100464.22;5021774;28;19931;-78
2023/10/14 02:07:52;;;;;;;;;;;;;;;12.28;100.00;100480.97;4992964;28;20012;-78
2023/10/14 02:10:18;;;;;;;;;;;;;;;12.29;100.00;100489.66;5020223;28;19929;-78
2023/10/14 02:12:43;;;;;;;;;;;;;;;12.31;100.00;100495.72;5014835;28;19918;-78
2023/10/14 02:15:08;;;;;;;;;;;;;;;12.32;100.00;100511.31;5022891;28;20090;-78
2023/10/14 02:17:33;;;;;;;;;;;;;;;12.32;100.00;100498.25;5025591;28;19921;-78
2023/10/14 02:20:08;;;;;;;;;;;;;;;12.31;100.00;100504.41;5041775;28;19958;-78
2023/10/14 02:22:38;;;;;;;;;;;;;;;12.35;100.00;100518.19;5012168;28;20056;-78
2023/10/14 02:25:04;;;;;;;;;;;;;;;12.36;100.00;100514.66;5018233;28;19927;-78
2023/10/14 02:27:30;;;;;;;;;;;;;;;12.34;100.00;100522.59;5017112;28;19957;-78
2023/10/14 02:29:55;;;;;;;;;;;;;;;12.36;100.00;100532.97;5007074;28;19921;-78
2023/10/14 02:32:20;;;;;;;;;;;;;;;12.31;100.00;100540.13;5055219;28;20405;-78
2023/10/14 02:34:46;;;;;;;;;;;;;;;12.25;100.00;100543.81;5022324;28;19942;-78
2023/10/14 02:37:14;;;;;;;;;;;;;;;12.21;100.00;100547.44;5027970;28;19925;-78
2023/10/14 02:39:42;;;;;;;;;;;;;;;12.15;100.00;100556.34;5047472;28;20006;-78
2023/10/14 02:42:08;;;;;;;;;;;;;;;12.09;100.00;100561.78;5012177;28;19928;-78
2023/10/14 02:44:44;;;;;;;;;;;;;;;11.97;100.00;100580.50;5018155;28;19925;-78
2023/10/14 02:47:09;;;;;;;;;;;;;;;11.88;100.00;100583.41;5004833;28;19983;-78
2023/10/14 02:49:37;;;;;;;;;;;;;;;11.80;100.00;100582.75;4997472;28;20357;-78
2023/10/14 02:52:08;;;;;;;;;;;;;;;11.71;100.00;100594.38;5012809;28;20012;-78
2023/10/14 02:54:34;;;;;;;;;;;;;;;11.61;100.00;100603.41;5047060;28;19917;-77
2023/10/14 02:57:00;;;;;;;;;;;;;;;11.47;100.00;100617.72;5011956;28;19921;-78
2023/10/14 03:09:51;;;;;;;;;;;;;;;10.98;100.00;100660.06;5015789;28;20378;-77
2023/10/14 03:12:21;;;;;;;;;;;;;;;10.90;100.00;100670.72;5017344;28;19921;-78
2023/10/14 03:14:48;;;;;;;;;;;;;;;10.84;100.00;100673.50;5016289;28;20554;-78
2023/10/14 03:17:17;;;;;;;;;;;;;;;10.80;100.00;100681.44;5038674;28;19917;-78
2023/10/14 03:19:42;;;;;;;;;;;;;;;10.73;100.00;100686.81;5026051;28;20004;-78
2023/10/14 03:22:08;;;;;;;;;;;;;;;10.72;100.00;100692.06;5014904;28;20004;-78
2023/10/14 03:24:38;;;;;;;;;;;;;;;10.68;100.00;100703.47;5030477;28;20413;-78
2023/10/14 03:27:04;;;;;;;;;;;;;;;10.64;100.00;100704.47;5035071;28;19925;-78
2023/10/14 03:29:29;;;;;;;;;;;;;;;10.61;100.00;100713.22;5023503;28;19925;-78
2023/10/14 03:31:55;;;;;;;;;;;;;;;10.62;100.00;100724.50;5027691;28;20361;-77
2023/10/14 03:34:23;;;;;;;;;;;;;;;10.58;100.00;100728.06;5013679;28;19951;-78
2023/10/14 03:36:50;;;;;;;;;;;;;;;10.52;100.00;100729.06;5020971;28;19940;-77
2023/10/14 03:39:37;;;;;;;;;;;;;;;10.49;100.00;100732.59;5012919;28;19923;-78
2023/10/14 03:42:10;;;;;;;;;;;;;;;10.41;100.00;100736.31;5014611;28;19917;-78
2023/10/14 03:44:35;;;;;;;;;;;;;;;10.30;100.00;100750.47;5022453;28;19950;-78
2023/10/14 03:47:00;;;;;;;;;;;;;;;10.24;100.00;100754.94;5059786;28;20358;-78
2023/10/14 03:49:25;;;;;;;;;;;;;;;10.17;100.00;100764.63;5005208;28;20379;-78
2023/10/14 03:51:54;;;;;;;;;;;;;;;10.07;100.00;100763.09;5001371;28;19925;-77
2023/10/14 03:54:23;;;;;;;;;;;;;;;10.02;100.00;100764.97;5014952;28;20012;-78
2023/10/14 03:56:50;;;;;;;;;;;;;;;9.96;100.00;100772.91;5034750;28;19924;-78
2023/10/14 03:59:23;;;;;;;;;;;;;;;9.89;100.00;100780.00;5025570;28;19915;-78
2023/10/14 04:01:54;;;;;;;;;;;;;;;9.84;100.00;100787.06;5011094;28;19917;-78
2023/10/14 04:04:21;;;;;;;;;;;;;;;9.80;100.00;100788.00;5016517;28;20008;-77
2023/10/14 04:09:37;;;;;;;;;;;;;;;9.76;100.00;100795.03;5027179;28;19925;-77
2023/10/14 04:12:07;;;;;;;;;;;;;;;9.71;100.00;100804.69;5012721;28;19917;-77
2023/10/14 04:14:36;;;;;;;;;;;;;;;9.67;100.00;100810.84;5014269;28;20004;-77
2023/10/14 04:17:10;;;;;;;;;;;;;;;9.59;100.00;100815.34;5013044;28;19921;-77
2023/10/14 04:19:44;;;;;;;;;;;;;;;9.54;100.00;100822.38;5008549;28;19990;-77
2023/10/14 04:22:27;;;;;;;;;;;;;;;9.48;100.00;100831.19;5001731;28;20372;-78
2023/10/14 04:27:37;;;;;;;;;;;;;;;9.38;100.00;100838.31;5021616;28;19922;-78
2023/10/14 04:30:13;;;;;;;;;;;;;;;9.34;100.00;100841.81;5012972;28;20344;-77
2023/10/14 04:35:12;;;;;;;;;;;;;;;9.31;100.00;100860.09;5046665;28;19917;-78
2023/10/14 04:37:52;;;;;;;;;;;;;;;9.29;100.00;100861.03;5057616;28;19913;-78
2023/10/14 04:40:38;;;;;;;;;;;;;;;9.24;100.00;100874.09;5060206;28;19929;-78
2023/10/14 04:43:11;;;;;;;;;;;;;;;9.21;100.00;100873.31;5049012;28;19917;-78
2023/10/14 04:45:37;;;;;;;;;;;;;;;9.20;100.00;100877.66;5036683;28;19953;-77
2023/10/14 04:48:05;;;;;;;;;;;;;;;9.18;100.00;100888.97;5005976;28;20360;-78
2023/10/14 04:50:31;;;;;;;;;;;;;;;9.13;100.00;100894.25;5035375;28;20363;-77
2023/10/14 04:52:57;;;;;;;;;;;;;;;9.10;100.00;100900.34;5030127;28;19922;-77
2023/10/14 04:55:25;;;;;;;;;;;;;;;9.09;100.00;100898.66;5079311;28;19951;-77
2023/10/14 04:58:15;;;;;;;;;;;;;;;9.07;100.00;100908.19;5058160;28;19925;-77
2023/10/14 05:00:43;;;;;;;;;;;;;;;9.07;100.00;100907.34;5013249;28;19924;-78
2023/10/14 05:03:19;;;;;;;;;;;;;;;9.05;100.00;100920.34;5017889;28;19956;-77
2023/10/14 05:05:50;;;;;;;;;;;;;;;9.02;100.00;100920.41;5008067;28;19970;-78
2023/10/14 05:08:21;;;;;;;;;;;;;;;9.02;100.00;100920.41;5073830;28;19918;-77
2023/10/14 05:10:50;;;;;;;;;;;;;;;9.00;100.00;100932.59;5049490;28;19915;-77
2023/10/14 05:13:15;;;;;;;;;;;;;;;8.99;100.00;100928.28;5030985;28;19918;-77
2023/10/14 05:15:45;;;;;;;;;;;;;;;8.97;100.00;100934.38;5015911;28;19924;-78
2023/10/14 05:18:16;;;;;;;;;;;;;;;8.92;100.00;100944.84;5037054;28;19932;-77
2023/10/14 05:23:19;;;;;;;;;;;;;;;8.86;100.00;100955.31;5013573;28;20040;-77
2023/10/14 05:25:56;;;;;;;;;;;;;;;8.85;100.00;100954.47;5009839;28;19918;-77
2023/10/14 05:28:26;;;;;;;;;;;;;;;8.82;100.00;100962.31;5038491;28;19921;-78
2023/10/14 05:30:55;;;;;;;;;;;;;;;8.80;100.00;100960.63;5016282;28;20362;-77
2023/10/14 05:33:21;;;;;;;;;;;;;;;8.78;100.00;100962.38;5036081;28;19922;-77
2023/10/14 05:35:48;;;;;;;;;;;;;;;8.75;100.00;100971.06;5021748;28;20262;-77
2023/10/14 05:38:14;;;;;;;;;;;;;;;8.73;100.00;100974.56;5013814;28;19917;-77
2023/10/14 05:40:40;;;;;;;;;;;;;;;8.71;100.00;100973.75;5011847;28;19918;-77
2023/10/14 05:43:08;;;;;;;;;;;;;;;8.68;100.00;100972.91;5022528;28;19918;-77
2023/10/14 05:45:37;;;;;;;;;;;;;;;8.67;100.00;100984.19;5012470;28;19976;-77
2023/10/14 05:48:07;;;;;;;;;;;;;;;8.67;100.00;100986.78;5012032;28;19978;-77
2023/10/14 05:50:33;;;;;;;;;;;;;;;8.73;100.00;100990.16;5035750;28;20371;-77
2023/10/14 05:52:59;;;;;;;;;;;;;;;8.81;100.00;101010.00;5016246;28;19969;-77
2023/10/14 05:55:25;;;;;;;;;;;;;;;8.90;100.00;101001.22;5033598;28;19958;-77
2023/10/14 05:57:50;;;;;;;;;;;;;;;8.96;100.00;101010.66;5027127;28;19953;-78
2023/10/14 06:00:22;;;;;;;;;;;;;;;8.92;100.00;101004.63;5018098;28;19918;-77
2023/10/14 06:02:48;;;;;;;;;;;;;;;8.88;100.00;101016.81;5009038;28;19954;-77
2023/10/14 06:05:16;;;;;;;;;;;;;;;8.88;100.00;101034.16;5003261;28;19917;-77
2023/10/14 06:07:45;;;;;;;;;;;;;;;8.86;100.00;101020.31;5011600;28;19921;-77
2023/10/14 06:10:11;;;;;;;;;;;;;;;8.84;100.00;101041.16;5003339;28;19929;-77
2023/10/14 06:12:36;;;;;;;;;;;;;;;8.75;100.00;101041.25;5010881;28;19917;-77
2023/10/14 06:15:01;;;;;;;;;;;;;;;8.68;100.00;101044.81;5029483;28;20006;-77
2023/10/14 06:17:26;;;;;;;;;;;;;;;8.66;100.00;101046.56;5066641;28;19921;-77
2023/10/14 06:19:53;;;;;;;;;;;;;;;8.66;100.00;101046.56;5037387;28;20284;-77
2023/10/14 06:22:18;;;;;;;;;;;;;;;8.66;100.00;101060.44;5015097;28;19925;-77
2023/10/14 06:24:43;;;;;;;;;;;;;;;8.72;100.00;101058.63;5014727;28;20026;-77
2023/10/14 06:27:08;;;;;;;;;;;;;;;8.76;100.00;101066.38;5013935;28;20338;-77
2023/10/14 06:29:34;;;;;;;;;;;;;;;8.84;100.00;101068.91;5018429;28;19917;-77
2023/10/14 06:32:03;;;;;;;;;;;;;;;8.89;100.00;101072.28;5020595;28;19921;-77
2023/10/14 06:34:32;;;;;;;;;;;;;;;8.94;100.00;101083.50;5016590;28;19917;-77
2023/10/14 06:37:01;;;;;;;;;;;;;;;9.00;100.00;101086.03;5012745;28;20016;-77
2023/10/14 06:39:26;;;;;;;;;;;;;;;9.06;100.00;101093.75;5043190;28;19923;-77
2023/10/14 06:41:55;;;;;;;;;;;;;;;9.12;100.00;101097.97;5018787;28;19917;-77
2023/10/14 06:44:26;;;;;;;;;;;;;;;9.12;100.00;101109.28;5018238;28;19916;-77
2023/10/14 06:46:53;;;;;;;;;;;;;;;9.08;100.00;101112.78;5023945;28;19924;-77
2023/10/14 06:49:18;;;;;;;;;;;;;;;9.06;100.00;101119.75;5009738;28;19917;-77
2023/10/14 06:51:43;;;;;;;;;;;;;;;9.06;100.00;101124.94;5046487;28;19974;-77
2023/10/14 06:54:14;;;;;;;;;;;;;;;9.01;100.00;101131.09;5007859;28;19925;-77
2023/10/14 06:56:40;;;;;;;;;;;;;;;8.96;100.00;101138.06;5003055;28;20291;-78
2023/10/14 06:59:05;;;;;;;;;;;;;;;8.88;100.00;101144.22;5018537;28;20054;-77
2023/10/14 07:01:31;;;;;;;;;;;;;;;8.84;100.00;101149.50;5016693;28;20368;-77
2023/10/14 07:03:56;;;;;;;;;;;;;;;8.83;100.00;101158.19;5018721;28;19917;-77
2023/10/14 07:06:22;;;;;;;;;;;;;;;8.82;100.00;101167.69;5018660;28;19924;-77
2023/10/14 07:08:48;;;;;;;;;;;;;;;8.80;100.00;101163.41;5017806;28;19924;-77
2023/10/14 07:11:15;;;;;;;;;;;;;;;8.84;100.00;101167.69;5020761;28;19969;-77
2023/10/14 07:13:42;;;;;;;;;;;;;;;8.82;100.00;101167.69;5014797;28;19921;-77
2023/10/14 07:16:07;;;;;;;;;;;;;;;8.83;100.00;101171.19;5024822;28;19917;-77
2023/10/14 07:18:36;;;;;;;;;;;;;;;8.84;100.00;101176.34;5007624;28;20383;-77
2023/10/14 07:21:02;;;;;;;;;;;;;;;8.89;100.00;101176.28;5024996;28;19913;-77
2023/10/14 07:23:28;;;;;;;;;;;;;;;8.89;100.00;101184.09;5012243;28;19921;-77
2023/10/14 07:25:53;;;;;;;;;;;;;;;8.90;100.00;101183.22;5002064;28;20430;-77
2023/10/14 07:28:18;;;;;;;;;;;;;;;8.89;100.00;101179.78;5016207;28;20364;-77
2023/10/14 07:30:48;;;;;;;;;;;;;;;8.93;100.00;101191.00;5035943;28;20309;-77
2023/10/14 07:33:13;;;;;;;;;;;;;;;8.96;100.00;101198.75;5009368;28;19917;-77
2023/10/14 07:35:41;;;;;;;;;;;;;;;9.00;100.00;101197.84;5004299;28;19925;-77
2023/10/14 07:38:08;;;;;;;;;;;;;;;9.03;100.00;101208.22;5009064;28;19924;-77
2023/10/14 07:40:36;;;;;;;;;;;;;;;9.07;100.00;101207.28;5011675;28;20407;-77
2023/10/14 07:43:05;;;;;;;;;;;;;;;9.05;100.00;101206.44;5009842;28;20012;-77
2023/10/14 07:45:33;;;;;;;;;;;;;;;9.02;100.00;101219.47;5018466;28;20388;-77
2023/10/14 07:47:59;;;;;;;;;;;;;;;9.07;100.00;101215.09;5012486;28;19922;-77
2023/10/14 07:50:24;;;;;;;;;;;;;;;9.09;100.00;101222.88;5013071;28;19962;-78
2023/10/14 07:52:51;;;;;;;;;;;;;;;9.11;100.00;101221.13;5012054;28;19961;-77
2023/10/14 07:55:22;;;;;;;;;;;;;;;9.18;100.00;101221.91;5021074;28;19920;-77
2023/10/14 07:57:48;;;;;;;;;;;;;;;9.23;100.00;101220.13;5011162;28;20384;-78
2023/10/14 08:00:14;;;;;;;;;;;;;;;9.26;100.00;101235.69;5018190;28;20016;-77
2023/10/14 08:02:40;;;;;;;;;;;;;;;9.27;100.00;101227.00;5013494;28;19986;-78
2023/10/14 08:05:06;;;;;;;;;;;;;;;9.31;100.00;101233.88;5019774;28;19918;-76
2023/10/14 08:07:33;;;;;;;;;;;;;;;9.34;100.00;101244.25;5029502;28;19917;-78
2023/10/14 08:10:16;;;;;;;;;;;;;;;9.37;100.00;101242.47;5017937;28;19925;-77
2023/10/14 08:12:42;;;;;;;;;;;;;;;9.38;100.00;101249.44;5022676;28;19917;-77
2023/10/14 08:15:08;;;;;;;;;;;;;;;9.42;100.00;101257.16;5011993;28;19917;-77
2023/10/14 08:17:33;;;;;;;;;;;;;;;9.37;100.00;101255.50;5018672;28;20519;-78
2023/10/14 08:19:58;;;;;;;;;;;;;;;9.37;100.00;101252.03;5013987;28;20012;-77
2023/10/14 08:22:24;;;;;;;;;;;;;;;9.40;100.00;101267.63;5023739;28;19917;-77
2023/10/14 08:24:49;;;;;;;;;;;;;;;9.43;100.00;101266.72;5016363;28;20300;-77
2023/10/14 08:27:14;;;;;;;;;;;;;;;9.48;100.00;101272.72;5013984;28;20019;-77
2023/10/14 08:29:41;;;;;;;;;;;;;;;9.52;100.00;101274.44;5025325;28;19963;-77
2023/10/14 08:32:06;;;;;;;;;;;;;;;9.57;100.00;101281.28;5017526;28;19924;-77
2023/10/14 08:34:32;;;;;;;;;;;;;;;9.54;100.00;101277.84;5023275;28;19917;-77
2023/10/14 08:36:57;;;;;;;;;;;;;;;9.50;100.00;101276.19;5026451;28;20323;-77
2023/10/14 08:39:23;;;;;;;;;;;;;;;9.48;100.00;101284.03;5045107;28;19928;-77
2023/10/14 08:41:51;;;;;;;;;;;;;;;9.54;100.00;101296.94;5016920;28;20012;-77
2023/10/14 08:44:22;;;;;;;;;;;;;;;9.58;100.00;101300.34;5019618;28;19924;-77
2023/10/14 08:46:47;;;;;;;;;;;;;;;9.63;100.00;101310.72;5027262;28;19924;-77
2023/10/14 08:49:13;;;;;;;;;;;;;;;9.68;100.00;101307.19;5015250;28;19925;-77
2023/10/14 08:51:39;;;;;;;;;;;;;;;9.75;100.00;101315.78;5018143;28;19963;-77
2023/10/14 08:54:06;;;;;;;;;;;;;;;9.77;100.00;101311.41;5011876;28;19918;-77
2023/10/14 08:56:34;;;;;;;;;;;;;;;9.88;100.00;101316.50;5014739;28;20356;-77
2023/10/14 08:59:00;;;;;;;;;;;;;;;9.87;100.00;101312.16;5038424;28;19913;-78
2023/10/14 09:01:25;;;;;;;;;;;;;;;9.94;100.00;101313.78;5021489;28;20380;-77
2023/10/14 09:03:51;;;;;;;;;;;;;;;9.95;100.00;101313.78;5037797;28;19924;-77
2023/10/14 09:06:16;;;;;;;;;;;;;;;10.03;100.00;101311.94;5021894;28;19913;-78
2023/10/14 09:08:44;;;;;;;;;;;;;;;10.14;100.00;101322.22;5039907;28;19921;-78
2023/10/14 09:11:24;;;;;;;;;;;;;;;10.26;100.00;101331.63;5022891;28;19928;-77
2023/10/14 09:13:59;;;;;;;;;;;;;;;10.37;100.00;101329.75;5007062;28;19924;-77
2023/10/14 09:16:26;;;;;;;;;;;;;;;10.44;100.00;101331.38;5023996;28;19920;-77
2023/10/14 09:19:01;;;;;;;;;;;;;;;10.44;100.00;101331.38;5083270;28;19940;-78
2023/10/14 09:21:28;;;;;;;;;;;;;;;10.51;100.00;101321.69;5034443;28;20425;-78
2023/10/14 09:23:53;;;;;;;;;;;;;;;10.58;100.00;101322.47;5080850;28;19916;-78
2023/10/14 09:26:20;;;;;;;;;;;;;;;10.58;100.00;101336.34;5044321;28;19985;-77
2023/10/14 09:28:46;;;;;;;;;;;;;;;10.57;100.00;101331.19;5041783;28;19918;-78
2023/10/14 09:31:12;;;;;;;;;;;;;;;10.59;100.00;101319.81;5027816;28;19924;-78
2023/10/14 09:33:41;;;;;;;;;;;;;;;10.64;100.00;101322.38;5042285;28;19943;-78
2023/10/14 09:36:11;;;;;;;;;;;;;;;10.63;100.00;101320.66;5009101;28;19917;-78
2023/10/14 09:38:37;;;;;;;;;;;;;;;10.60;100.00;101310.28;5040092;28;20388;-78
2023/10/14 09:41:03;;;;;;;;;;;;;;;10.70;100.00;101328.34;5029054;28;19921;-78
2023/10/14 09:43:29;;;;;;;;;;;;;;;10.75;100.00;101329.13;5046561;28;20359;-77
2023/10/14 09:45:56;;;;;;;;;;;;;;;10.76;100.00;101328.25;5027599;28;19921;-78
2023/10/14 09:48:27;;;;;;;;;;;;;;;10.89;100.00;101333.25;5019353;28;19920;-78
2023/10/14 09:50:54;;;;;;;;;;;;;;;10.99;100.00;101334.84;5013768;28;19924;-78
2023/10/14 09:53:21;;;;;;;;;;;;;;;10.96;100.00;101330.53;5008838;28;19928;-78
2023/10/14 09:55:46;;;;;;;;;;;;;;;10.82;100.00;101337.69;5023313;28;19917;-78
2023/10/14 09:58:13;;;;;;;;;;;;;;;10.71;100.00;101335.28;5036526;28;19923;-77
2023/10/14 10:00:39;;;;;;;;;;;;;;;10.69;100.00;101342.28;5023885;28;20429;-78
2023/10/14 10:03:06;;;;;;;;;;;;;;;10.72;100.00;101346.56;5037183;28;19917;-77
2023/10/14 10:05:39;;;;;;;;;;;;;;;10.74;100.00;101345.66;4999125;28;20368;-77
2023/10/14 10:08:17;;;;;;;;;;;;;;;10.73;100.00;101356.13;5038737;28;20399;-77
2023/10/14 10:10:43;;;;;;;;;;;;;;;10.75;100.00;101341.31;5008508;28;19917;-78
2023/10/14 10:13:09;;;;;;;;;;;;;;;10.81;100.00;101340.34;5038766;28;20443;-78
2023/10/14 10:15:35;;;;;;;;;;;;;;;10.86;100.00;101344.63;5026055;28;19917;-78
2023/10/14 10:18:04;;;;;;;;;;;;;;;10.85;100.00;101352.44;5042179;28;20288;-77
2023/10/14 10:20:31;;;;;;;;;;;;;;;10.83;100.00;101341.19;5024264;28;20365;-77
2023/10/14 10:22:57;;;;;;;;;;;;;;;10.92;100.00;101356.66;5044415;28;19955;-78
2023/10/14 10:25:23;;;;;;;;;;;;;;;11.11;100.00;101346.78;5024884;28;19976;-78
2023/10/14 10:27:55;;;;;;;;;;;;;;;11.19;100.00;101356.22;5038069;28;19924;-78
2023/10/14 10:30:22;;;;;;;;;;;;;;;11.15;100.00;101357.16;5028081;28;19925;-78
2023/10/14 10:32:49;;;;;;;;;;;;;;;11.28;100.00;101368.25;5035038;28;20276;-78
2023/10/14 10:35:16;;;;;;;;;;;;;;;11.35;100.00;101362.03;5056320;28;19998;-77
2023/10/14 10:37:50;;;;;;;;;;;;;;;11.43;100.00;101372.31;5071831;28;20280;-78
2023/10/14 10:40:25;;;;;;;;;;;;;;;11.27;100.00;101379.56;5041990;28;19917;-78
2023/10/14 10:42:55;;;;;;;;;;;;;;;11.07;100.00;101374.69;5028826;28;19924;-78
2023/10/14 10:45:21;;;;;;;;;;;;;;;10.94;100.00;101384.47;5043479;28;19932;-78
2023/10/14 10:47:51;;;;;;;;;;;;;;;10.84;100.00;101393.31;5015875;28;19921;-78
2023/10/14 10:50:17;;;;;;;;;;;;;;;10.68;100.00;101397.06;5006005;28;19917;-78
2023/10/14 10:52:51;;;;;;;;;;;;;;;10.49;100.00;101394.69;5037119;28;19959;-78
2023/10/14 10:55:17;;;;;;;;;;;;;;;10.43;100.00;101402.63;5022491;28;19917;-78
2023/10/14 10:57:44;;;;;;;;;;;;;;;10.39;100.00;101408.75;5038957;28;19922;-77
2023/10/14 11:00:10;;;;;;;;;;;;;;;10.52;100.00;101393.81;5021837;28;20536;-77
2023/10/14 11:02:35;;;;;;;;;;;;;;;10.76;100.00;101400.41;5040709;28;19947;-78
2023/10/14 11:05:02;;;;;;;;;;;;;;;11.01;100.00;101396.50;5021665;28;20016;-77
2023/10/14 11:07:28;;;;;;;;;;;;;;;11.23;100.00;101398.78;5037839;28;20386;-78
2023/10/14 11:09:53;;;;;;;;;;;;;;;11.42;100.00;101401.94;5026544;28;19956;-77
2023/10/14 11:12:18;;;;;;;;;;;;;;;11.59;100.00;101396.38;5028016;28;19917;-77
2023/10/14 11:14:44;;;;;;;;;;;;;;;11.80;100.00;101388.13;5039271;28;19917;-78
2023/10/14 11:17:09;;;;;;;;;;;;;;;12.01;100.00;101410.41;5022802;28;20288;-77
2023/10/14 11:19:34;;;;;;;;;;;;;;;12.23;100.00;101400.38;5045251;28;20002;-77
2023/10/14 11:22:01;;;;;;;;;;;;;;;12.45;100.00;101377.19;5021431;28;20008;-77
2023/10/14 11:24:26;;;;;;;;;;;;;;;12.59;100.00;101393.47;5041985;28;20012;-78
2023/10/14 11:26:53;;;;;;;;;;;;;;;12.40;100.00;101398.22;5018387;28;20411;-78
2023/10/14 11:29:20;;;;;;;;;;;;;;;12.17;100.00;101405.72;5004954;28;20380;-78
2023/10/14 11:31:46;;;;;;;;;;;;;;;12.12;100.00;101399.72;5037700;28;19918;-79
2023/10/14 11:34:11;;;;;;;;;;;;;;;11.97;100.00;101400.91;5013989;28;19924;-79
2023/10/14 11:36:41;;;;;;;;;;;;;;;11.76;100.00;101396.06;5039762;28;20253;-79
2023/10/14 11:39:15;;;;;;;;;;;;;;;11.73;100.00;101397.84;5014426;28;19955;-77
2023/10/14 11:41:41;;;;;;;;;;;;;;;12.10;100.00;101406.75;5032537;28;20319;-77
2023/10/14 11:44:06;;;;;;;;;;;;;;;12.55;100.00;101398.78;5044359;28;19921;-77
2023/10/14 11:46:34;;;;;;;;;;;;;;;13.05;100.00;101391.50;5053745;28;19923;-78
2023/10/14 11:48:59;;;;;;;;;;;;;;;13.27;100.00;101413.63;5020555;28;20011;-78
2023/10/14 11:51:29;;;;;;;;;;;;;;;13.01;100.00;101400.31;5017550;28;20040;-78
2023/10/14 11:53:56;;;;;;;;;;;;;;;12.80;100.00;101418.25;5011474;28;20266;-77
2023/10/14 11:56:21;;;;;;;;;;;;;;;12.77;100.00;101413.09;5017007;28;19921;-78
2023/10/14 11:58:49;;;;;;;;;;;;;;;12.78;100.00;101412.19;5020677;28;19913;-77
2023/10/14 12:01:14;;;;;;;;;;;;;;;13.35;100.00;101411.69;5019531;28;19918;-77
2023/10/14 12:03:40;;;;;;;;;;;;;;;14.11;100.00;101401.75;5022300;28;19928;-77
2023/10/14 12:06:12;;;;;;;;;;;;;;;14.57;100.00;101406.50;5011425;28;19918;-77
2023/10/14 12:08:37;;;;;;;;;;;;;;;15.06;100.00;101406.69;5017263;28;19924;-77
2023/10/14 12:11:03;;;;;;;;;;;;;;;15.49;100.00;101399.97;5027475;28;20272;-77
2023/10/14 12:13:29;;;;;;;;;;;;;;;15.66;100.00;101397.59;5019183;28;19921;-77
2023/10/14 12:15:54;;;;;;;;;;;;;;;15.92;100.00;101404.59;5030008;28;19924;-77
2023/10/14 12:18:20;;;;;;;;;;;;;;;16.29;100.00;101403.22;5043214;28;19917;-77
2023/10/14 12:20:46;;;;;;;;;;;;;;;16.57;100.00;101398.56;5030425;28;20004;-78
2023/10/14 12:23:12;;;;;;;;;;;;;;;16.20;100.00;101408.81;5014782;28;20376;-77
2023/10/14 12:25:37;;;;;;;;;;;;;;;16.28;100.00;101404.13;5027158;28;19924;-77
2023/10/14 12:28:03;;;;;;;;;;;;;;;16.97;100.00;101396.13;5015366;28;19933;-77
2023/10/14 12:30:35;;;;;;;;;;;;;;;17.49;100.00;101389.53;5014604;28;19921;-77
2023/10/14 12:33:04;;;;;;;;;;;;;;;17.15;100.00;101400.66;5008104;28;19917;-78
2023/10/14 12:35:32;;;;;;;;;;;;;;;16.50;100.00;101412.91;5017047;28;19943;-77
2023/10/14 12:37:58;;;;;;;;;;;;;;;15.84;100.00;101404.03;5015423;28;19992;-77
2023/10/14 12:40:24;;;;;;;;;;;;;;;15.39;100.00;101404.69;5023271;28;19917;-77
2023/10/14 12:42:49;;;;;;;;;;;;;;;15.05;100.00;101421.59;5004586;28;20262;-77
2023/10/14 12:45:22;;;;;;;;;;;;;;;14.66;100.00;101435.09;5014483;28;20364;-77
2023/10/14 12:47:48;;;;;;;;;;;;;;;14.22;100.00;101426.78;5015754;28;19918;-77
2023/10/14 12:50:14;;;;;;;;;;;;;;;13.84;100.00;101434.88;5021805;28;19921;-77
2023/10/14 12:52:40;;;;;;;;;;;;;;;13.48;100.00;101442.81;5023157;28;20292;-77
2023/10/14 12:55:24;;;;;;;;;;;;;;;13.20;100.00;101446.06;5000527;28;19956;-77
2023/10/14 12:57:49;;;;;;;;;;;;;;;13.21;100.00;101432.09;5015614;28;19950;-77
2023/10/14 13:00:20;;;;;;;;;;;;;;;13.50;100.00;101447.06;5014252;28;19922;-77